Pagina principale
METAR-TAF:

METAR-TAF

Aeroporti :

Meiringen, Svizzera

latitudine: 46-44-25N, longitudine: 8-06-36E, altezza: 577 m

Osservazione

Il bollettino è stato emesso 29 minuti fa, alle 10:20 UTC
Vento calmo
Temperature 5°C
Umidità 75%
Pressione 1016 hPa
Visibilità 10 km o più
Poco nuvoloso ad un'altezza di 3600 ft
Nubi sparse ad un'altezza di 8100 ft

METAR: LSMM 091020Z 00000KT 9999 R10/1100N R28/P2000U FEW036 SCT081 05/01 Q1016 RMK BLU+

Ora: 11:49 (10:49 UTC)


TAF: mancante

Osservazioni e previsioni meteorologiche di più di 4000 aeroporti (messaggi METAR e TAF).

Le stazioni disponibili sono rappresentate dai dischi gialli e rossi sulla carta.

Puntare il mouse per vedere il nome della stazione.

Clicca sopra per visualizzare le osservazioni e previsioni meteorologiche.

Per cambiare la mappa : fare clic sui pulsanti verdi con una croce nera per ingrandire, il pulsante verde con un trattino per diminuire, o sulla freccia verde per le mappe adiacenti.


METAR-TAF: